Strona główna
METAR-TAF:

METAR-TAF

Lotnisko :

Greenville, Maine, Stany Zjednoczone

Szerokość geograficzna: 45-28N, Długość geograficzna: 069-35W, wysokość: 427 m

Aktualna obserwacja pogody

Raport powstał 26 minut temu, godzina 01:56 UTC
Cisza
Temperatura -3°C
Wilgotność 74%
Ciśnienie 1012 hPa

METAR: KGNR 170156Z AUTO 00000KT M03/M07 A2989 RMK AO1 SLP146 T10281072

czas: 21:22 (02:22 UTC)


TAF: brakujący

Obserwacja i prognoza pogody dla ponad 4000 lotnisk (raport METAR i TAF).

Dostępne stacje oznaczono żółtymi i czerwonymi punktami na mapie.

Najedź kursorem aby zobaczyć nazwę stacji.

Kliknij aby zobaczyć obserwacje i prognozy pogody.

Aby zmienić mapę: kliknij na zielony przycisk z czarnym krzyżykiem, aby powiększyć; na zielony przycisk z myślnikiem, aby pomniejszyć; na zielone strzałki, aby przejść do map sąsiednich.


METAR-TAF: